Terminal Aerodrome Forecast
Issued by NWS

Home | Current Version | Previous Version | Text Only | Print | Product List | Glossary On
Versions: 1 2 3 4 5 6 7 8 9 10 11 12 13 14 15 16 17 18 19 20 21 22
907
FTUS43 KAPX 211759 AAA
TAFMBL
TAF AMD
KMBL 211759Z 2118/2218 09004KT 4SM BR BKN015
     FM211900 VRB03KT P6SM BKN080
     FM220300 08004KT 3SM BR OVC050
     FM220700 08007KT 2SM -DZ BR OVC015
     FM221200 08009KT 2SM -RA OVC008
     FM221700 09011G20KT 1 1/2SM -RA OVC015=

USA.gov is the U.S. government's official web portal to all federal, state and local government web resources and services.